EGHE/ISC METAR and TAF weather

Enter ICAO airport designator
Station Type Date Time Source
EGHE METAR 2020/09/25 16:50 UTC NOAA

EGHE 251650Z 32020KT 9999 FEW010 13/05 Q1018


Station Type Date Time Source
EGHE Decoded METAR 2020/09/25 16:50 UTC NOAA

Scilly, Saint Mary'S, United Kingdom (EGHE) 49-55N 006-18W 0M
Sep 25, 2020 - 12:50 PM EDT / 2020.09.25 1650 UTC
Wind: from the NW (320 degrees) at 23 MPH (20 KT):0
Visibility: greater than 7 mile(s):0
Sky conditions: mostly clear
Temperature: 55 F (13 C)
Dew Point: 41 F (5 C)
Relative Humidity: 58%
Pressure (altimeter): 30.06 in. Hg (1018 hPa)
ob: EGHE 251650Z 32020KT 9999 FEW010 13/05 Q1018
cycle: 17

Station Type Date Time Source
EGHE TAF UTC NOAA

Error!

Example: see airport list